createdAt,value
2018-02-02T00:00:47.013Z,-0.15
2018-02-02T00:03:13.048Z,-0.09
2018-02-02T00:05:39.236Z,-0.01
2018-02-02T00:08:05.315Z,0.13
2018-02-02T00:10:31.371Z,0.16
2018-02-02T00:12:57.458Z,0.17
2018-02-02T00:15:23.550Z,0.27
2018-02-02T00:17:49.576Z,0.35
2018-02-02T00:20:15.616Z,0.25
2018-02-02T00:22:41.664Z,0.24
2018-02-02T00:25:07.688Z,0.20
2018-02-02T00:27:33.724Z,0.22
2018-02-02T00:29:59.791Z,0.18
2018-02-02T00:32:25.889Z,0.16
2018-02-02T00:34:51.948Z,0.15
2018-02-02T00:37:18.036Z,0.08
2018-02-02T00:39:44.068Z,0.09
2018-02-02T00:42:10.142Z,0.24
2018-02-02T00:44:36.183Z,0.28
2018-02-02T00:47:02.192Z,0.39
2018-02-02T00:49:28.256Z,0.46
2018-02-02T00:52:00.249Z,0.74
2018-02-02T00:54:26.265Z,0.85
2018-02-02T00:56:52.270Z,0.77
2018-02-02T00:59:18.321Z,0.80
2018-02-02T01:01:44.298Z,0.85
2018-02-02T01:04:10.342Z,0.89
2018-02-02T01:06:36.372Z,0.91
2018-02-02T01:09:02.497Z,0.84
2018-02-02T01:11:28.465Z,0.85
2018-02-02T01:13:54.480Z,0.89
2018-02-02T01:16:20.534Z,0.96
2018-02-02T01:18:46.577Z,0.95
2018-02-02T01:21:12.561Z,1.00
2018-02-02T01:23:38.593Z,0.96
2018-02-02T01:26:04.654Z,0.97
2018-02-02T01:28:30.684Z,0.88
2018-02-02T01:30:56.712Z,0.88
2018-02-02T01:33:22.757Z,0.92
2018-02-02T01:35:48.822Z,0.97
2018-02-02T01:38:14.872Z,0.98
2018-02-02T01:40:40.880Z,1.00
2018-02-02T01:43:06.960Z,1.00
2018-02-02T01:45:32.997Z,1.05
2018-02-02T01:48:11.322Z,1.08
2018-02-02T01:50:37.399Z,0.99
2018-02-02T01:53:03.478Z,1.01
2018-02-02T01:55:29.513Z,1.02
2018-02-02T01:57:55.623Z,1.04
2018-02-02T02:00:21.657Z,1.02
2018-02-02T02:02:47.721Z,1.03
2018-02-02T02:05:13.757Z,0.99
2018-02-02T02:07:39.771Z,1.02
2018-02-02T02:10:05.813Z,0.99
2018-02-02T02:12:31.851Z,1.07
2018-02-02T02:14:57.861Z,1.04
2018-02-02T02:17:23.878Z,1.02
2018-02-02T02:19:49.915Z,1.03
2018-02-02T02:22:15.924Z,1.04
2018-02-02T02:24:41.925Z,1.02
2018-02-02T02:27:08.000Z,1.04
2018-02-02T02:29:34.052Z,1.03
2018-02-02T02:32:00.155Z,1.03
2018-02-02T02:34:26.172Z,1.02
2018-02-02T02:36:52.160Z,1.02
2018-02-02T02:39:18.252Z,0.98
2018-02-02T02:41:44.288Z,1.02
2018-02-02T02:44:10.321Z,1.01
2018-02-02T02:46:36.324Z,1.01
2018-02-02T02:49:02.329Z,1.02
2018-02-02T02:51:28.385Z,1.02
2018-02-02T02:53:54.385Z,1.03
2018-02-02T02:56:20.400Z,1.06
2018-02-02T02:58:46.388Z,1.07
2018-02-02T03:01:12.401Z,1.07
2018-02-02T03:03:38.448Z,1.12
2018-02-02T03:06:04.476Z,1.14
2018-02-02T03:08:30.548Z,1.16
2018-02-02T03:10:56.568Z,1.13
2018-02-02T03:13:22.581Z,1.09
2018-02-02T03:15:48.545Z,1.03
2018-02-02T03:18:14.525Z,0.98
2018-02-02T03:20:40.496Z,0.94
2018-02-02T03:23:06.532Z,0.89
2018-02-02T03:25:32.524Z,0.86
2018-02-02T03:27:58.561Z,0.81
2018-02-02T03:30:24.589Z,0.79
2018-02-02T03:32:50.592Z,0.75
2018-02-02T03:35:16.556Z,0.77
2018-02-02T03:37:42.518Z,0.77
2018-02-02T03:40:08.533Z,0.76
2018-02-02T03:42:34.488Z,0.79
2018-02-02T03:45:00.544Z,0.79
2018-02-02T03:47:26.528Z,0.77
2018-02-02T03:49:52.560Z,0.75
2018-02-02T03:52:18.593Z,0.70
2018-02-02T03:54:44.568Z,0.71
2018-02-02T03:57:10.582Z,0.69
2018-02-02T03:59:36.542Z,0.65
2018-02-02T04:02:02.553Z,0.66
2018-02-02T04:04:28.595Z,0.62
2018-02-02T04:06:54.561Z,0.42
2018-02-02T04:09:20.521Z,0.43
2018-02-02T04:11:46.535Z,0.33
2018-02-02T04:14:12.503Z,0.30
2018-02-02T04:16:38.544Z,-0.07
2018-02-02T04:19:04.532Z,-0.19
2018-02-02T04:21:30.616Z,-0.20
2018-02-02T04:23:56.684Z,-0.20
2018-02-02T04:26:22.717Z,-0.17
2018-02-02T04:28:48.733Z,-0.03
2018-02-02T04:31:14.765Z,0.13
2018-02-02T04:33:40.804Z,0.15
2018-02-02T04:39:06.925Z,0.10
2018-02-02T04:41:32.932Z,0.02
2018-02-02T04:43:58.896Z,0.01
2018-02-02T04:46:24.940Z,-0.13
2018-02-02T04:48:50.982Z,-0.11
2018-02-02T04:51:17.019Z,-0.07
2018-02-02T04:53:43.152Z,-0.09
2018-02-02T04:56:09.168Z,-0.15
2018-02-02T04:58:35.472Z,-0.15
2018-02-02T05:01:01.466Z,-0.25
2018-02-02T05:03:27.557Z,-0.45
2018-02-02T05:05:53.554Z,-0.57
2018-02-02T05:08:19.650Z,-0.72
2018-02-02T05:10:45.688Z,-0.64
2018-02-02T05:13:11.685Z,-0.48
2018-02-02T05:15:37.687Z,-0.40
2018-02-02T05:18:03.709Z,-0.29
2018-02-02T05:20:29.728Z,-0.31
2018-02-02T05:22:56.158Z,-0.09
2018-02-02T05:25:22.212Z,-0.39
2018-02-02T05:27:48.193Z,-0.72
2018-02-02T05:30:14.206Z,-1.00
2018-02-02T05:32:40.185Z,-0.97
2018-02-02T05:35:06.152Z,-0.85
2018-02-02T05:37:32.152Z,-0.65
2018-02-02T05:39:58.133Z,-0.48
2018-02-02T05:42:24.141Z,-0.57
2018-02-02T05:44:50.125Z,-0.61
2018-02-02T05:47:16.504Z,-0.50
2018-02-02T05:49:42.497Z,-0.41
2018-02-02T05:52:08.545Z,-0.55
2018-02-02T05:54:34.580Z,-0.55
2018-02-02T05:57:00.583Z,-0.50
2018-02-02T05:59:26.573Z,-0.42
2018-02-02T06:01:52.613Z,-0.26
2018-02-02T06:04:18.517Z,-0.30
2018-02-02T06:06:44.532Z,-0.45
2018-02-02T06:09:10.501Z,-0.54
2018-02-02T06:11:36.480Z,-0.57
2018-02-02T06:14:02.456Z,-0.62
2018-02-02T06:16:28.490Z,-0.58
2018-02-02T06:18:54.520Z,-0.49
2018-02-02T06:21:20.504Z,-0.41
2018-02-02T06:23:46.595Z,-0.41
2018-02-02T06:26:12.617Z,-0.55
2018-02-02T06:28:38.624Z,-0.52
2018-02-02T06:31:04.659Z,-0.66
2018-02-02T06:33:30.650Z,-0.62
2018-02-02T06:35:56.664Z,-0.60
2018-02-02T06:38:22.673Z,-0.69
2018-02-02T06:40:48.672Z,-0.90
2018-02-02T06:43:14.725Z,-0.92
2018-02-02T06:45:40.799Z,-0.94
2018-02-02T06:48:06.820Z,-0.92
2018-02-02T06:50:32.836Z,-1.01
2018-02-02T06:52:58.828Z,-1.01
2018-02-02T06:55:24.891Z,-1.02
2018-02-02T06:57:50.978Z,-1.04
2018-02-02T07:00:16.992Z,-0.98
2018-02-02T07:02:43.097Z,-0.99
2018-02-02T07:05:09.159Z,-0.93
2018-02-02T07:07:35.177Z,-0.97
2018-02-02T07:10:01.254Z,-0.89
2018-02-02T07:12:27.277Z,-0.82
2018-02-02T07:14:53.292Z,-0.79
2018-02-02T07:17:19.296Z,-0.69
2018-02-02T07:19:45.317Z,-0.60
2018-02-02T07:22:11.324Z,-0.53
2018-02-02T07:24:37.386Z,-0.50
2018-02-02T07:27:03.448Z,-0.55
2018-02-02T07:29:29.468Z,-0.53
2018-02-02T07:31:55.530Z,-0.59
2018-02-02T07:34:21.531Z,-0.50
2018-02-02T07:36:47.933Z,-0.37
2018-02-02T07:39:13.938Z,-0.35
2018-02-02T07:41:39.902Z,-0.34
2018-02-02T07:44:05.931Z,-0.22
2018-02-02T07:46:31.956Z,-0.23
2018-02-02T07:48:57.992Z,-0.13
2018-02-02T07:51:24.074Z,-0.03
2018-02-02T07:53:50.133Z,-0.06
2018-02-02T07:56:16.140Z,-0.09
2018-02-02T07:58:42.105Z,0.11
2018-02-02T08:01:14.265Z,0.21
2018-02-02T08:03:40.326Z,0.26
2018-02-02T08:06:06.360Z,0.23
2018-02-02T08:08:32.381Z,0.27
2018-02-02T08:10:58.401Z,0.26
2018-02-02T08:13:24.422Z,0.33
2018-02-02T08:15:50.401Z,0.36
2018-02-02T08:18:16.451Z,0.41
2018-02-02T08:20:42.469Z,0.33
2018-02-02T08:23:08.485Z,0.35
2018-02-02T08:25:34.517Z,0.43
2018-02-02T08:28:00.574Z,0.43
2018-02-02T08:30:26.602Z,0.45
2018-02-02T08:32:52.606Z,0.47
2018-02-02T08:35:18.865Z,0.46
2018-02-02T08:37:45.265Z,0.57
2018-02-02T08:40:11.309Z,0.60
2018-02-02T08:42:37.385Z,0.58
2018-02-02T08:45:03.651Z,0.58
2018-02-02T08:47:29.597Z,0.53
2018-02-02T08:49:55.550Z,0.61
2018-02-02T08:52:21.601Z,0.57
2018-02-02T08:54:47.705Z,0.61
2018-02-02T08:57:13.710Z,0.53
2018-02-02T08:59:39.805Z,0.62
2018-02-02T09:02:05.841Z,0.46
2018-02-02T09:04:31.940Z,0.48
2018-02-02T09:06:58.258Z,0.44
2018-02-02T09:09:24.414Z,0.61
2018-02-02T09:11:50.402Z,0.73
2018-02-02T09:14:16.511Z,0.78
2018-02-02T09:16:42.533Z,0.78
2018-02-02T09:19:08.618Z,0.78
2018-02-02T09:21:34.569Z,0.89
2018-02-02T09:24:00.598Z,1.17
2018-02-02T09:26:26.577Z,1.17
2018-02-02T09:28:52.606Z,1.43
2018-02-02T09:31:18.566Z,1.48
2018-02-02T09:33:44.620Z,1.60
2018-02-02T09:36:10.653Z,1.52
2018-02-02T09:38:36.705Z,1.58
2018-02-02T09:41:02.762Z,1.63
2018-02-02T09:43:28.780Z,1.69
2018-02-02T09:45:54.876Z,1.65
2018-02-02T09:48:20.853Z,1.78
2018-02-02T09:50:46.862Z,1.98
2018-02-02T09:53:12.981Z,2.05
2018-02-02T09:55:39.064Z,2.13
2018-02-02T09:58:05.080Z,2.13
2018-02-02T10:00:31.093Z,2.12
2018-02-02T10:02:57.160Z,2.17
2018-02-02T10:05:23.306Z,2.25
2018-02-02T10:07:49.353Z,2.32
2018-02-02T10:10:15.364Z,2.32
2018-02-02T10:12:41.398Z,2.35
2018-02-02T10:15:07.412Z,2.25
2018-02-02T10:17:33.483Z,2.35
2018-02-02T10:19:59.582Z,2.34
2018-02-02T10:22:25.709Z,2.29
2018-02-02T10:24:51.808Z,2.30
2018-02-02T10:27:17.825Z,2.40
2018-02-02T10:29:43.873Z,2.58
2018-02-02T10:32:09.917Z,2.54
2018-02-02T10:34:35.951Z,2.56
2018-02-02T10:37:02.037Z,2.55
2018-02-02T10:39:28.317Z,2.63
2018-02-02T10:41:54.379Z,2.61
2018-02-02T10:44:20.392Z,2.55
2018-02-02T10:46:46.449Z,2.58
2018-02-02T10:49:12.488Z,2.70
2018-02-02T10:51:38.556Z,2.74
2018-02-02T10:54:04.611Z,2.88
2018-02-02T10:56:30.668Z,3.07
2018-02-02T10:58:56.685Z,3.23
2018-02-02T11:01:28.925Z,3.27
2018-02-02T11:04:04.980Z,3.15
2018-02-02T11:06:30.976Z,3.11
2018-02-02T11:08:57.176Z,3.04
2018-02-02T11:11:23.257Z,3.18
2018-02-02T11:13:49.288Z,3.22
2018-02-02T11:16:15.305Z,3.28
2018-02-02T11:18:41.335Z,3.26
2018-02-02T11:21:07.442Z,3.31
2018-02-02T11:23:33.457Z,3.26
2018-02-02T11:25:59.485Z,3.28
2018-02-02T11:28:25.540Z,3.16
2018-02-02T11:30:51.549Z,3.13
2018-02-02T11:33:17.603Z,3.15
2018-02-02T11:35:43.666Z,3.08
2018-02-02T11:38:09.712Z,2.99
2018-02-02T11:40:35.771Z,2.97
2018-02-02T11:43:01.885Z,3.04
2018-02-02T11:45:27.929Z,3.05
2018-02-02T11:47:53.956Z,3.10
2018-02-02T11:50:20.065Z,3.12
2018-02-02T11:52:46.134Z,3.13
2018-02-02T11:55:12.166Z,3.15
2018-02-02T11:57:38.237Z,3.19
2018-02-02T12:00:04.312Z,3.21
2018-02-02T12:02:30.368Z,3.16
2018-02-02T12:04:56.404Z,3.18
2018-02-02T12:07:22.705Z,3.19
2018-02-02T12:09:48.743Z,3.10
2018-02-02T12:12:14.800Z,3.13
2018-02-02T12:14:40.904Z,3.18
2018-02-02T12:17:06.961Z,3.20
2018-02-02T12:19:33.042Z,3.24
2018-02-02T12:22:01.072Z,3.29
2018-02-02T12:24:28.976Z,3.26
2018-02-02T12:30:09.741Z,3.14
2018-02-02T12:32:41.954Z,3.15
2018-02-02T12:35:17.958Z,3.14
2018-02-02T12:37:44.023Z,3.15
2018-02-02T12:40:10.113Z,3.07
2018-02-02T12:42:36.185Z,3.07
2018-02-02T12:45:02.274Z,3.06
2018-02-02T12:47:34.434Z,3.09
2018-02-02T12:50:05.993Z,3.14
2018-02-02T12:52:32.012Z,3.06
2018-02-02T12:54:58.040Z,2.99
2018-02-02T12:57:24.186Z,3.02
2018-02-02T12:59:50.252Z,3.03
2018-02-02T13:02:16.318Z,3.06
2018-02-02T13:04:42.289Z,3.06
2018-02-02T13:07:08.364Z,3.10
2018-02-02T13:09:34.405Z,3.13
2018-02-02T13:12:00.431Z,3.13
2018-02-02T13:14:26.393Z,3.08
2018-02-02T13:16:52.388Z,2.98
2018-02-02T13:19:18.442Z,2.94
2018-02-02T13:21:44.533Z,2.79
2018-02-02T13:24:10.597Z,2.78
2018-02-02T13:26:36.591Z,2.77
2018-02-02T13:29:02.662Z,2.77
2018-02-02T13:31:28.724Z,2.77
2018-02-02T13:33:54.756Z,2.77
2018-02-02T13:36:20.748Z,2.77
2018-02-02T13:38:46.808Z,2.71
2018-02-02T13:41:12.901Z,2.70
2018-02-02T13:43:38.985Z,2.63
2018-02-02T13:46:05.020Z,2.62
2018-02-02T13:48:31.089Z,2.55
2018-02-02T13:50:57.173Z,2.59
2018-02-02T13:53:23.344Z,2.59
2018-02-02T13:55:49.376Z,2.61
2018-02-02T13:58:15.385Z,2.58
2018-02-02T14:00:41.476Z,2.61
2018-02-02T14:03:07.635Z,2.60
2018-02-02T14:05:33.693Z,2.54
2018-02-02T14:07:59.808Z,2.60
2018-02-02T14:10:25.849Z,2.56
2018-02-02T14:12:51.938Z,2.58
2018-02-02T14:15:17.952Z,2.57
2018-02-02T14:17:43.968Z,2.53
2018-02-02T14:20:10.148Z,2.56
2018-02-02T14:22:36.172Z,2.57
2018-02-02T14:25:02.348Z,2.57
2018-02-02T14:27:28.353Z,2.57
2018-02-02T14:29:54.373Z,2.57
2018-02-02T14:32:20.460Z,2.65
2018-02-02T14:34:46.489Z,2.64
2018-02-02T14:37:12.524Z,2.58
2018-02-02T14:39:38.570Z,2.58
2018-02-02T14:42:04.605Z,2.56
2018-02-02T14:44:30.675Z,2.55
2018-02-02T14:46:56.783Z,2.51
2018-02-02T14:49:22.827Z,2.62
2018-02-02T14:51:48.992Z,2.58
2018-02-02T14:54:15.043Z,2.61
2018-02-02T14:56:41.147Z,2.62
2018-02-02T14:59:07.246Z,2.56
2018-02-02T15:01:33.384Z,2.48
2018-02-02T15:06:32.115Z,2.41
2018-02-02T15:08:58.239Z,2.34
2018-02-02T15:11:24.349Z,2.34
2018-02-02T15:13:50.414Z,2.36
2018-02-02T15:16:16.475Z,2.37
2018-02-02T15:18:42.871Z,2.35
2018-02-02T15:21:08.954Z,2.36
2018-02-02T15:23:35.048Z,2.36
2018-02-02T15:26:01.087Z,2.29
2018-02-02T15:28:27.124Z,2.20
2018-02-02T15:30:53.366Z,2.23
2018-02-02T15:33:19.601Z,2.15
2018-02-02T15:35:45.691Z,2.20
2018-02-02T15:38:11.784Z,2.17
2018-02-02T15:40:38.543Z,2.18
2018-02-02T15:43:04.611Z,2.14
2018-02-02T15:45:30.700Z,2.10
2018-02-02T15:47:56.980Z,2.11
2018-02-02T15:50:23.041Z,2.18
2018-02-02T15:52:49.473Z,2.18
2018-02-02T15:55:15.565Z,2.21
2018-02-02T15:57:41.641Z,2.19
2018-02-02T16:00:07.744Z,2.13
2018-02-02T16:02:33.762Z,2.12
2018-02-02T16:04:59.899Z,2.13
2018-02-02T16:07:25.928Z,2.08
2018-02-02T16:09:52.166Z,2.00
2018-02-02T16:12:18.316Z,2.01
2018-02-02T16:14:44.370Z,2.01
2018-02-02T16:17:10.434Z,2.08
2018-02-02T16:19:36.496Z,2.12
2018-02-02T16:24:35.470Z,2.08
2018-02-02T16:27:01.517Z,2.03
2018-02-02T16:29:27.589Z,1.99
2018-02-02T16:31:53.641Z,2.02
2018-02-02T16:34:19.708Z,2.01
2018-02-02T16:36:46.110Z,1.99
2018-02-02T16:39:12.232Z,1.94
2018-02-02T16:41:38.289Z,1.94
2018-02-02T16:44:04.344Z,1.98
2018-02-02T16:46:30.413Z,1.95
2018-02-02T16:48:56.438Z,1.96
2018-02-02T16:51:22.543Z,1.94
2018-02-02T16:53:48.605Z,1.95
2018-02-02T16:56:14.642Z,1.94
2018-02-02T16:58:41.573Z,1.96
2018-02-02T17:01:07.730Z,1.99
2018-02-02T17:03:34.572Z,1.97
2018-02-02T17:06:00.821Z,2.02
2018-02-02T17:08:27.141Z,2.03
2018-02-02T17:10:53.718Z,2.07
2018-02-02T17:13:19.785Z,2.02
2018-02-02T17:15:45.856Z,2.03
2018-02-02T17:18:11.895Z,2.02
2018-02-02T17:20:37.984Z,2.03
2018-02-02T17:23:04.140Z,1.92
2018-02-02T17:25:30.210Z,1.95
2018-02-02T17:27:56.279Z,1.92
2018-02-02T17:30:22.428Z,1.90
2018-02-02T17:32:48.467Z,1.83
2018-02-02T17:35:14.486Z,1.82
2018-02-02T17:37:40.561Z,1.83
2018-02-02T17:40:06.673Z,1.84
2018-02-02T17:42:35.151Z,1.81
2018-02-02T17:45:01.321Z,1.81
2018-02-02T17:47:27.374Z,1.89
2018-02-02T17:49:53.452Z,1.95
2018-02-02T17:54:52.498Z,2.00
2018-02-02T17:57:18.518Z,2.02
2018-02-02T17:59:44.598Z,1.92
2018-02-02T18:02:10.734Z,1.93
2018-02-02T18:04:36.872Z,1.97
2018-02-02T18:07:02.972Z,1.98
2018-02-02T18:09:29.042Z,1.84
2018-02-02T18:11:55.115Z,1.83
2018-02-02T18:14:21.141Z,2.00
2018-02-02T18:16:47.201Z,1.93
2018-02-02T18:19:13.254Z,1.89
2018-02-02T18:21:39.309Z,1.89
2018-02-02T18:24:05.643Z,1.87
2018-02-02T18:26:31.714Z,1.92
2018-02-02T18:28:57.747Z,1.91
2018-02-02T18:31:23.924Z,1.90
2018-02-02T18:33:49.986Z,1.82
2018-02-02T18:36:16.056Z,1.86
2018-02-02T18:38:42.683Z,1.98
2018-02-02T18:41:08.755Z,1.93
2018-02-02T18:43:34.749Z,1.96
2018-02-02T18:46:00.839Z,1.98
2018-02-02T18:48:26.874Z,1.95
2018-02-02T18:50:52.915Z,1.86
2018-02-02T18:53:19.000Z,1.82
2018-02-02T18:55:45.041Z,1.91
2018-02-02T18:58:11.075Z,1.83
2018-02-02T19:00:37.114Z,1.82
2018-02-02T19:03:03.140Z,1.81
2018-02-02T19:05:29.175Z,1.87
2018-02-02T19:07:55.224Z,1.84
2018-02-02T19:10:21.261Z,1.75
2018-02-02T19:12:47.304Z,1.85
2018-02-02T19:15:13.360Z,1.83
2018-02-02T19:17:39.842Z,1.79
2018-02-02T19:20:05.853Z,1.78
2018-02-02T19:22:31.896Z,1.72
2018-02-02T19:24:57.912Z,1.71
2018-02-02T19:27:24.227Z,1.70
2018-02-02T19:29:50.288Z,1.86
2018-02-02T19:32:16.476Z,1.79
2018-02-02T19:34:42.549Z,1.92
2018-02-02T19:37:08.628Z,1.92
2018-02-02T19:39:34.687Z,1.89
2018-02-02T19:42:00.705Z,1.85
2018-02-02T19:44:26.800Z,1.84
2018-02-02T19:46:53.515Z,1.84
2018-02-02T19:49:19.675Z,1.91
2018-02-02T19:51:45.681Z,1.94
2018-02-02T19:54:11.763Z,1.98
2018-02-02T19:56:37.825Z,2.01
2018-02-02T19:59:03.917Z,2.00
2018-02-02T20:01:29.981Z,1.97
2018-02-02T20:03:56.045Z,1.97
2018-02-02T20:06:22.162Z,1.97
2018-02-02T20:08:48.823Z,1.92
2018-02-02T20:11:14.882Z,1.97
2018-02-02T20:13:41.067Z,1.90
2018-02-02T20:16:07.161Z,1.93
2018-02-02T20:18:33.672Z,2.01
2018-02-02T20:21:03.242Z,1.96
2018-02-02T20:23:29.483Z,1.87
2018-02-02T20:25:55.564Z,2.01
2018-02-02T20:28:21.629Z,2.09
2018-02-02T20:30:47.871Z,2.12
2018-02-02T20:33:13.927Z,2.04
2018-02-02T20:35:40.063Z,2.08
2018-02-02T20:38:06.024Z,2.12
2018-02-02T20:40:32.021Z,2.08
2018-02-02T20:42:58.104Z,2.07
2018-02-02T20:45:24.145Z,1.99
2018-02-02T20:47:51.142Z,2.03
2018-02-02T20:50:17.178Z,2.02
2018-02-02T20:52:43.494Z,2.02
2018-02-02T20:55:09.605Z,1.93
2018-02-02T20:57:35.654Z,1.95
2018-02-02T21:00:01.711Z,1.95
2018-02-02T21:02:27.875Z,1.90
2018-02-02T21:04:54.481Z,1.89
2018-02-02T21:07:21.029Z,1.88
2018-02-02T21:09:47.134Z,1.89
2018-02-02T21:12:13.302Z,1.92
2018-02-02T21:14:39.351Z,1.89
2018-02-02T21:17:05.354Z,1.84
2018-02-02T21:19:31.426Z,1.80
2018-02-02T21:21:57.461Z,1.83
2018-02-02T21:24:23.862Z,1.81
2018-02-02T21:26:49.878Z,1.82
2018-02-02T21:29:15.951Z,1.81
2018-02-02T21:31:42.065Z,1.81
2018-02-02T21:34:08.141Z,1.87
2018-02-02T21:36:34.235Z,1.84
2018-02-02T21:39:00.369Z,1.83
2018-02-02T21:41:26.445Z,1.80
2018-02-02T21:43:52.440Z,1.82
2018-02-02T21:46:18.541Z,1.81
2018-02-02T21:48:44.600Z,1.83
2018-02-02T21:51:10.720Z,1.86
2018-02-02T21:53:36.811Z,1.83
2018-02-02T21:56:02.865Z,1.88
2018-02-02T21:58:28.882Z,1.92
2018-02-02T22:00:54.970Z,1.93
2018-02-02T22:03:21.033Z,1.92
2018-02-02T22:05:49.734Z,1.91
2018-02-02T22:08:15.999Z,1.92
2018-02-02T22:10:42.110Z,1.84
2018-02-02T22:13:08.133Z,1.89
2018-02-02T22:15:35.043Z,1.94
2018-02-02T22:18:01.098Z,1.97
2018-02-02T22:20:27.151Z,1.98
2018-02-02T22:22:53.176Z,1.96
2018-02-02T22:25:19.176Z,1.96
2018-02-02T22:27:45.209Z,1.95
2018-02-02T22:30:11.244Z,1.92
2018-02-02T22:32:37.338Z,1.98
2018-02-02T22:35:03.708Z,2.02
2018-02-02T22:37:29.799Z,2.04
2018-02-02T22:39:55.878Z,2.04
2018-02-02T22:42:21.990Z,2.06
2018-02-02T22:44:48.036Z,2.05
2018-02-02T22:47:14.153Z,1.95
2018-02-02T22:49:40.231Z,2.01
2018-02-02T22:52:06.457Z,2.02
2018-02-02T22:54:33.594Z,2.07
2018-02-02T22:56:59.618Z,2.05
2018-02-02T22:59:25.956Z,1.89
2018-02-02T23:01:51.976Z,1.91
2018-02-02T23:04:18.117Z,2.00
2018-02-02T23:06:44.141Z,1.91
2018-02-02T23:09:10.189Z,1.88
2018-02-02T23:11:36.371Z,1.85
2018-02-02T23:14:02.418Z,1.96
2018-02-02T23:16:28.454Z,1.94
2018-02-02T23:18:54.467Z,1.93
2018-02-02T23:21:20.644Z,1.89
2018-02-02T23:23:46.881Z,1.85
2018-02-02T23:26:12.892Z,1.80
2018-02-02T23:28:38.948Z,1.74
2018-02-02T23:31:15.370Z,1.72
2018-02-02T23:33:41.393Z,1.70
2018-02-02T23:36:07.422Z,1.72
2018-02-02T23:38:33.424Z,1.79
2018-02-02T23:40:59.496Z,1.75
2018-02-02T23:43:25.489Z,1.73
2018-02-02T23:45:51.560Z,1.73
2018-02-02T23:48:17.596Z,1.70
2018-02-02T23:50:43.621Z,1.72
2018-02-02T23:53:09.631Z,1.67
2018-02-02T23:55:36.320Z,1.68
2018-02-02T23:58:02.294Z,1.60
